createdAt,value
2017-11-17T01:37:40.496Z,7.31
2017-11-17T01:37:41.067Z,7.32
2017-11-17T01:37:41.669Z,7.31
2017-11-17T01:37:42.266Z,7.34
2017-11-17T01:37:42.865Z,7.31
2017-11-17T01:37:43.466Z,7.32
2017-11-17T01:38:37.432Z,7.31
2017-11-17T01:38:38.007Z,7.32
2017-11-17T01:38:38.606Z,7.35
2017-11-17T01:38:39.204Z,7.35
2017-11-17T01:38:39.803Z,7.32
2017-11-17T01:38:40.403Z,7.35
2017-11-17T01:38:41.003Z,7.35
2017-11-17T01:38:41.604Z,7.37
2017-11-17T01:39:35.091Z,7.38
2017-11-17T01:39:35.660Z,7.29
2017-11-17T01:39:36.263Z,7.35
2017-11-17T01:39:36.856Z,7.27
2017-11-17T01:39:37.454Z,7.34
2017-11-17T01:39:38.058Z,7.37
2017-11-17T01:39:38.659Z,7.34
2017-11-17T01:39:39.269Z,7.34
2017-11-17T01:40:37.752Z,7.37
2017-11-17T01:40:38.324Z,7.44
2017-11-17T01:40:38.924Z,7.42
2017-11-17T01:40:39.523Z,7.41
2017-11-17T01:40:40.130Z,7.47
2017-11-17T01:40:40.724Z,7.47
2017-11-17T01:40:41.325Z,7.44
2017-11-17T01:40:41.928Z,7.41
2017-11-17T01:40:42.522Z,7.44
2017-11-17T01:40:43.122Z,7.37
2017-11-17T01:40:43.730Z,7.47
2017-11-17T01:40:44.323Z,7.45
2017-11-17T01:40:44.925Z,7.38
2017-11-17T01:40:45.532Z,7.38
2017-11-17T01:40:46.124Z,7.41
2017-11-17T01:40:46.722Z,7.44
2017-11-17T02:50:45.604Z,5.68
2017-11-17T02:50:46.179Z,5.66
2017-11-17T02:50:46.777Z,5.63
2017-11-17T02:50:47.402Z,5.64
2017-11-17T02:50:47.975Z,5.67
2017-11-17T02:50:48.575Z,5.73
2017-11-17T02:50:49.177Z,5.73
2017-11-17T02:50:49.775Z,5.67
2017-11-17T02:51:44.792Z,5.63
2017-11-17T02:51:45.366Z,5.70
2017-11-17T02:51:45.965Z,5.67
2017-11-17T02:51:46.564Z,5.70
2017-11-17T02:51:47.165Z,5.64
2017-11-17T02:51:47.764Z,5.71
2017-11-17T02:51:48.364Z,5.63
2017-11-17T02:52:42.339Z,5.52
2017-11-17T02:52:42.916Z,5.57
2017-11-17T02:52:43.513Z,5.64
2017-11-17T02:52:44.119Z,5.60
2017-11-17T02:52:44.714Z,5.57
2017-11-17T02:52:45.314Z,5.64
2017-11-17T02:52:45.914Z,5.56
2017-11-17T02:53:59.246Z,5.52
2017-11-17T02:53:59.822Z,5.48
2017-11-17T02:54:00.421Z,5.55
2017-11-17T02:54:01.018Z,5.53
2017-11-17T02:54:01.619Z,5.50
2017-11-17T02:54:02.229Z,5.49
2017-11-17T02:54:02.821Z,5.53
2017-11-17T02:54:57.307Z,5.50
2017-11-17T02:54:57.879Z,5.53
2017-11-17T02:54:58.479Z,5.52
2017-11-17T02:54:59.080Z,5.52
2017-11-17T02:54:59.679Z,5.52
2017-11-17T02:55:00.278Z,5.50
2017-11-17T02:55:00.878Z,5.50
2017-11-17T02:55:01.479Z,5.50
2017-11-17T02:55:55.063Z,5.45
2017-11-17T02:55:55.636Z,5.46
2017-11-17T02:55:56.235Z,5.46
2017-11-17T02:55:56.836Z,5.50
2017-11-17T02:55:57.435Z,5.52
2017-11-17T02:55:58.040Z,5.38
2017-11-17T02:55:58.634Z,5.53
2017-11-17T02:55:59.233Z,5.53
2017-11-17T02:56:52.816Z,5.45
2017-11-17T02:56:53.390Z,5.45
2017-11-17T02:56:53.989Z,5.40
2017-11-17T02:56:54.589Z,5.46
2017-11-17T02:56:55.188Z,5.46
2017-11-17T02:56:55.790Z,5.43
2017-11-17T02:56:56.387Z,5.52
2017-11-17T02:56:56.990Z,5.45
2017-11-17T02:57:50.570Z,5.40
2017-11-17T02:57:51.144Z,5.40
2017-11-17T02:57:51.742Z,5.49
2017-11-17T02:57:52.344Z,5.40
2017-11-17T02:57:52.942Z,5.35
2017-11-17T02:57:53.542Z,5.38
2017-11-17T02:57:54.143Z,5.45
2017-11-17T02:57:54.742Z,5.43
2017-11-17T02:58:48.221Z,5.46
2017-11-17T02:58:48.795Z,5.38
2017-11-17T02:58:49.394Z,5.45
2017-11-17T02:58:49.995Z,5.38
2017-11-17T02:58:50.594Z,5.45
2017-11-17T02:58:51.194Z,5.31
2017-11-17T02:58:51.795Z,5.46
2017-11-17T02:58:52.395Z,5.46
2017-11-17T02:59:45.873Z,5.40
2017-11-17T02:59:46.448Z,5.34
2017-11-17T02:59:47.047Z,5.38
2017-11-17T02:59:47.651Z,5.46
2017-11-17T02:59:48.246Z,5.34
2017-11-17T02:59:48.849Z,5.35
2017-11-17T02:59:49.446Z,5.35
2017-11-17T02:59:50.061Z,5.41
2017-11-17T03:00:43.525Z,5.37
2017-11-17T03:00:44.098Z,5.41
2017-11-17T03:00:44.698Z,5.34
2017-11-17T03:00:45.299Z,5.43
2017-11-17T03:00:45.897Z,5.45
2017-11-17T03:00:46.498Z,5.41
2017-11-17T03:00:47.107Z,5.35
2017-11-17T03:00:47.698Z,5.43
2017-11-17T03:01:42.711Z,5.38
2017-11-17T03:01:43.284Z,5.38
2017-11-17T03:01:43.886Z,5.46
2017-11-17T03:01:44.485Z,5.48
2017-11-17T03:01:45.085Z,5.45
2017-11-17T03:01:45.685Z,5.38
2017-11-17T03:01:46.284Z,5.45
2017-11-17T03:02:40.773Z,5.35
2017-11-17T03:02:41.347Z,5.46
2017-11-17T03:02:41.953Z,5.35
2017-11-17T03:02:42.549Z,5.35
2017-11-17T03:02:43.146Z,5.35
2017-11-17T03:02:43.752Z,5.38
2017-11-17T03:02:44.348Z,5.43
2017-11-17T03:02:44.948Z,5.35
2017-11-17T03:03:38.425Z,5.45
2017-11-17T03:03:38.999Z,5.43
2017-11-17T03:03:39.597Z,5.46
2017-11-17T03:03:40.201Z,5.48
2017-11-17T03:03:40.799Z,5.48
2017-11-17T03:03:41.399Z,5.43
2017-11-17T03:03:41.998Z,5.46
2017-11-17T03:03:42.598Z,5.37
2017-11-17T03:04:36.181Z,5.41
2017-11-17T03:04:36.758Z,5.50
2017-11-17T03:04:37.352Z,5.45
2017-11-17T03:04:37.954Z,5.52
2017-11-17T03:04:38.553Z,5.49
2017-11-17T03:04:39.150Z,5.50
2017-11-17T03:04:39.750Z,5.50
2017-11-17T03:04:40.352Z,5.48
2017-11-17T03:05:33.844Z,5.57
2017-11-17T03:05:34.405Z,5.48
2017-11-17T03:05:35.013Z,5.45
2017-11-17T03:05:35.604Z,5.56
2017-11-17T03:05:36.204Z,5.49
2017-11-17T03:05:36.808Z,5.55
2017-11-17T03:05:37.436Z,5.56
2017-11-17T03:05:38.003Z,5.48
2017-11-17T03:06:31.995Z,5.53
2017-11-17T03:06:32.573Z,5.56
2017-11-17T03:06:33.167Z,5.50
2017-11-17T03:06:33.768Z,5.55
2017-11-17T03:06:34.368Z,5.53
2017-11-17T03:06:34.968Z,5.63
2017-11-17T03:06:35.567Z,5.59
2017-11-17T03:07:29.136Z,5.60
2017-11-17T03:07:29.710Z,5.59
2017-11-17T03:07:30.308Z,5.64
2017-11-17T03:07:30.909Z,5.56
2017-11-17T03:07:31.508Z,5.66
2017-11-17T03:07:32.108Z,5.66
2017-11-17T03:07:32.707Z,5.64
2017-11-17T03:07:33.313Z,5.59
2017-11-17T03:08:26.794Z,5.68
2017-11-17T03:08:27.360Z,5.73
2017-11-17T03:08:27.960Z,5.68
2017-11-17T03:08:28.560Z,5.64
2017-11-17T03:08:29.160Z,5.64
2017-11-17T03:08:29.762Z,5.66
2017-11-17T03:08:30.360Z,5.71
2017-11-17T03:08:30.960Z,5.71
2017-11-17T03:09:24.950Z,5.70
2017-11-17T03:09:25.523Z,5.71
2017-11-17T03:09:26.125Z,5.71
2017-11-17T03:09:26.723Z,5.73
2017-11-17T03:09:27.322Z,5.64
2017-11-17T03:09:27.922Z,5.73
2017-11-17T03:09:28.523Z,5.68
2017-11-17T03:10:23.010Z,5.75
2017-11-17T03:10:23.585Z,5.70
2017-11-17T03:10:24.184Z,5.70
2017-11-17T03:10:24.785Z,5.70
2017-11-17T03:10:25.385Z,5.67
2017-11-17T03:10:25.984Z,5.73
2017-11-17T03:10:26.585Z,5.60
2017-11-17T03:10:27.184Z,5.70
2017-11-17T03:11:20.664Z,5.73
2017-11-17T03:11:21.239Z,5.75
2017-11-17T03:11:21.841Z,5.70
2017-11-17T03:11:22.440Z,5.81
2017-11-17T03:11:23.040Z,5.78
2017-11-17T03:11:23.636Z,5.75
2017-11-17T03:11:24.235Z,5.71
2017-11-17T03:11:24.837Z,5.85
2017-11-17T03:12:18.316Z,5.75
2017-11-17T03:12:18.897Z,5.78
2017-11-17T03:12:19.503Z,5.83
2017-11-17T03:12:20.090Z,5.78
2017-11-17T03:12:20.689Z,5.74
2017-11-17T03:12:21.288Z,5.73
2017-11-17T03:12:21.889Z,5.75
2017-11-17T03:12:22.487Z,5.73
2017-11-17T03:13:17.504Z,5.77
2017-11-17T03:13:18.076Z,5.83
2017-11-17T03:13:18.676Z,5.86
2017-11-17T03:13:19.277Z,5.85
2017-11-17T03:13:19.875Z,5.83
2017-11-17T03:13:20.476Z,5.86
2017-11-17T03:14:14.544Z,5.85
2017-11-17T03:14:15.114Z,5.82
2017-11-17T03:14:15.713Z,5.82
2017-11-17T03:14:16.313Z,5.85
2017-11-17T03:14:16.918Z,5.83
2017-11-17T03:14:17.513Z,5.83
2017-11-17T03:14:18.112Z,5.82
2017-11-17T03:14:18.714Z,5.86
2017-11-17T03:15:13.224Z,5.91
2017-11-17T03:15:13.792Z,5.92
2017-11-17T03:15:14.403Z,5.91
2017-11-17T03:15:14.994Z,5.96
2017-11-17T03:15:15.590Z,5.89
2017-11-17T03:15:16.189Z,5.96
2017-11-17T03:15:16.790Z,6.04
2017-11-17T03:15:17.389Z,5.88
2017-11-17T03:16:11.891Z,5.91
2017-11-17T03:16:12.466Z,5.96
2017-11-17T03:16:13.066Z,5.98
2017-11-17T03:16:13.666Z,5.96
2017-11-17T03:16:14.269Z,5.95
2017-11-17T03:16:14.863Z,6.01
2017-11-17T03:16:15.463Z,6.00
2017-11-17T03:16:16.063Z,5.98
2017-11-17T03:17:10.056Z,5.98
2017-11-17T03:17:10.631Z,6.01
2017-11-17T03:17:11.227Z,5.92
2017-11-17T03:17:11.826Z,6.01
2017-11-17T03:17:12.427Z,5.89
2017-11-17T03:17:13.027Z,5.92
2017-11-17T03:17:13.627Z,5.92
2017-11-17T03:18:07.196Z,5.93
2017-11-17T03:18:07.775Z,5.96
2017-11-17T03:18:08.371Z,5.98
2017-11-17T03:18:08.971Z,6.04
2017-11-17T03:18:09.577Z,5.96
2017-11-17T03:18:10.169Z,5.98
2017-11-17T03:18:10.768Z,5.98
2017-11-17T03:18:11.369Z,5.98
2017-11-17T03:19:04.846Z,6.04
2017-11-17T03:19:05.420Z,6.03
2017-11-17T03:19:06.019Z,6.06
2017-11-17T03:19:06.620Z,6.10
2017-11-17T03:19:07.218Z,6.06
2017-11-17T03:19:07.818Z,6.00
2017-11-17T03:19:08.420Z,6.06
2017-11-17T03:19:09.018Z,5.96
2017-11-17T03:20:02.498Z,5.96
2017-11-17T03:20:03.071Z,6.03
2017-11-17T03:20:03.674Z,6.09
2017-11-17T03:20:04.272Z,6.00
2017-11-17T03:20:04.870Z,6.06
2017-11-17T03:20:05.470Z,6.06
2017-11-17T03:20:06.071Z,6.06
2017-11-17T03:20:06.670Z,6.10
2017-11-17T03:21:19.196Z,6.06
2017-11-17T03:21:19.771Z,6.14
2017-11-17T03:21:20.368Z,6.09
2017-11-17T03:21:20.969Z,6.09
2017-11-17T03:21:21.568Z,6.07
2017-11-17T03:21:22.169Z,6.09
2017-11-17T03:21:22.767Z,6.10
2017-11-17T03:21:23.367Z,6.07
2017-11-17T03:21:23.968Z,6.07
2017-11-17T03:21:24.577Z,6.04
2017-11-17T03:21:25.171Z,6.07
2017-11-17T03:22:39.186Z,6.06
2017-11-17T03:22:39.749Z,6.10
2017-11-17T03:22:40.345Z,6.06
2017-11-17T03:22:40.945Z,6.06
2017-11-17T03:22:41.547Z,6.04
2017-11-17T03:22:42.144Z,6.07
2017-11-17T03:22:42.744Z,6.10
2017-11-17T03:24:07.853Z,6.07
2017-11-17T03:24:08.423Z,6.09
2017-11-17T03:24:09.025Z,6.10
2017-11-17T03:24:09.623Z,6.06
2017-11-17T03:24:10.222Z,6.04
2017-11-17T03:24:10.823Z,6.07
2017-11-17T03:24:11.421Z,6.03
2017-11-17T03:25:05.911Z,6.04
2017-11-17T03:25:06.485Z,6.07
2017-11-17T03:25:07.088Z,6.07
2017-11-17T03:25:07.685Z,6.09
2017-11-17T03:25:08.284Z,6.04
2017-11-17T03:25:08.885Z,6.07
2017-11-17T03:25:09.484Z,6.04
2017-11-17T03:25:10.086Z,6.01
2017-11-17T03:26:06.636Z,6.03
2017-11-17T03:26:07.209Z,6.06
2017-11-17T03:26:07.814Z,6.07
2017-11-17T03:27:04.391Z,6.04
2017-11-17T03:27:04.963Z,6.00
2017-11-17T03:27:05.563Z,6.06
2017-11-17T03:28:41.157Z,5.95
2017-11-17T03:28:41.732Z,6.00
2017-11-17T03:28:42.333Z,6.03
2017-11-17T03:28:42.933Z,6.04
2017-11-17T03:28:43.530Z,6.01
2017-11-17T03:29:38.094Z,5.92
2017-11-17T03:29:38.676Z,6.01
2017-11-17T03:29:39.266Z,6.06
2017-11-17T03:29:39.869Z,5.95
2017-11-17T03:29:40.473Z,6.04
2017-11-17T03:29:41.064Z,6.06
2017-11-17T03:29:41.666Z,5.92
2017-11-17T03:31:14.769Z,6.01
2017-11-17T03:31:15.342Z,6.00
2017-11-17T03:31:15.935Z,5.98
2017-11-17T03:31:16.535Z,5.98
2017-11-17T03:31:17.134Z,5.98
2017-11-17T03:31:17.736Z,5.88
2017-11-17T03:31:18.334Z,5.96
2017-11-17T03:31:18.934Z,5.96
2017-11-17T03:31:19.534Z,5.89
2017-11-17T03:32:13.026Z,6.00
2017-11-17T03:32:13.601Z,6.01
2017-11-17T03:32:14.199Z,6.04
2017-11-17T03:32:14.804Z,6.01
2017-11-17T03:32:15.400Z,6.01
2017-11-17T03:32:16.001Z,5.95
2017-11-17T03:32:16.597Z,5.95
2017-11-17T03:32:17.210Z,5.98
2017-11-17T03:33:13.747Z,5.88
2017-11-17T03:33:14.322Z,5.91
2017-11-17T03:33:14.921Z,5.88
2017-11-17T03:34:11.403Z,5.81
2017-11-17T03:34:11.973Z,5.91
2017-11-17T03:34:12.574Z,5.89
2017-11-17T03:35:06.593Z,5.86
2017-11-17T03:35:07.168Z,5.91
2017-11-17T03:35:07.768Z,5.88
2017-11-17T03:35:08.375Z,5.85
2017-11-17T03:35:08.968Z,5.86
2017-11-17T03:35:09.567Z,5.88
2017-11-17T03:35:10.167Z,5.85
2017-11-17T03:36:05.168Z,5.83
2017-11-17T03:36:05.745Z,5.86
2017-11-17T03:36:06.341Z,5.88
2017-11-17T03:36:06.941Z,5.88
2017-11-17T03:36:07.541Z,5.89
2017-11-17T03:36:08.141Z,5.86
2017-11-17T03:36:08.740Z,5.83
2017-11-17T03:37:03.230Z,5.77
2017-11-17T03:37:03.802Z,5.91
2017-11-17T03:37:04.401Z,5.82
2017-11-17T03:37:05.001Z,5.89
2017-11-17T03:37:05.601Z,5.82
2017-11-17T03:37:06.200Z,5.85
2017-11-17T03:37:06.806Z,5.89
2017-11-17T03:37:07.400Z,5.89
2017-11-17T03:38:05.898Z,5.82
2017-11-17T03:38:06.471Z,5.83
2017-11-17T03:38:07.071Z,5.82
2017-11-17T03:38:07.671Z,5.85
2017-11-17T03:38:08.270Z,5.86
2017-11-17T03:38:08.869Z,5.83
2017-11-17T03:38:09.470Z,5.82
2017-11-17T03:38:10.070Z,5.88
2017-11-17T03:38:10.669Z,5.85
2017-11-17T03:38:11.271Z,5.78
2017-11-17T03:38:11.870Z,5.86
2017-11-17T03:38:12.471Z,5.86
2017-11-17T03:38:13.072Z,5.89
2017-11-17T03:38:13.669Z,5.82
2017-11-17T03:38:14.272Z,5.88
2017-11-17T03:38:14.869Z,5.83
2017-11-17T04:06:54.010Z,5.12
2017-11-17T04:06:54.583Z,5.16
2017-11-17T04:06:55.183Z,5.04
2017-11-17T04:06:55.782Z,5.17
2017-11-17T04:06:56.381Z,5.07
2017-11-17T04:06:56.980Z,5.07
2017-11-17T04:06:57.580Z,5.07
2017-11-17T04:06:58.181Z,5.01
2017-11-17T04:07:51.663Z,5.17
2017-11-17T04:07:52.235Z,5.14
2017-11-17T04:07:52.836Z,5.04
2017-11-17T04:07:53.440Z,5.16
2017-11-17T04:07:54.034Z,5.07
2017-11-17T04:07:54.633Z,5.16
2017-11-17T04:07:55.238Z,5.07
2017-11-17T04:07:55.835Z,5.07
2017-11-17T04:08:49.422Z,4.98
2017-11-17T04:08:49.992Z,5.14
2017-11-17T04:08:50.592Z,5.07
2017-11-17T04:08:51.191Z,5.07
2017-11-17T04:08:51.790Z,4.98
2017-11-17T04:08:52.391Z,5.12
2017-11-17T04:08:52.990Z,5.04
2017-11-17T04:08:53.590Z,5.07
2017-11-17T04:09:47.068Z,4.99
2017-11-17T04:09:47.642Z,5.04
2017-11-17T04:09:48.242Z,4.98
2017-11-17T04:09:48.841Z,5.05
2017-11-17T04:09:49.441Z,4.95
2017-11-17T04:09:50.040Z,5.05
2017-11-17T04:09:50.640Z,5.07
2017-11-17T04:09:51.242Z,4.96
2017-11-17T04:10:45.743Z,5.02
2017-11-17T04:10:46.317Z,4.96
2017-11-17T04:10:46.917Z,4.95
2017-11-17T04:10:47.526Z,4.99
2017-11-17T04:10:48.128Z,5.07
2017-11-17T04:10:48.716Z,5.01
2017-11-17T04:10:49.316Z,5.02
2017-11-17T04:10:49.916Z,5.02
2017-11-17T04:11:44.420Z,5.01
2017-11-17T04:11:44.994Z,4.99
2017-11-17T04:11:45.592Z,5.01
2017-11-17T04:11:46.211Z,4.99
2017-11-17T04:11:46.791Z,4.96
2017-11-17T04:11:47.391Z,5.01
2017-11-17T04:11:47.991Z,5.02
2017-11-17T04:11:48.591Z,4.94
2017-11-17T04:12:42.073Z,4.99
2017-11-17T04:12:42.646Z,5.02
2017-11-17T04:12:43.246Z,5.02
2017-11-17T04:12:43.845Z,5.02
2017-11-17T04:12:44.451Z,5.04
2017-11-17T04:12:45.044Z,5.02
2017-11-17T04:12:45.645Z,5.01
2017-11-17T04:12:46.253Z,4.99
2017-11-17T04:13:40.749Z,4.96
2017-11-17T04:13:41.322Z,5.01
2017-11-17T04:13:41.920Z,4.99
2017-11-17T04:13:42.526Z,5.02
2017-11-17T04:13:43.122Z,5.04
2017-11-17T04:13:43.721Z,4.95
2017-11-17T04:13:44.320Z,5.01
2017-11-17T04:13:44.919Z,4.95
2017-11-17T04:14:39.421Z,4.99
2017-11-17T04:14:39.997Z,4.99
2017-11-17T04:14:40.596Z,4.99
2017-11-17T04:14:41.196Z,4.98
2017-11-17T04:14:41.798Z,5.02
2017-11-17T04:14:42.395Z,5.01
2017-11-17T04:14:42.996Z,4.98
2017-11-17T04:14:43.596Z,5.01
2017-11-17T04:15:37.075Z,4.96
2017-11-17T04:15:37.649Z,4.96
2017-11-17T04:15:38.249Z,4.96
2017-11-17T04:15:38.849Z,4.98
2017-11-17T04:15:39.460Z,5.02
2017-11-17T04:15:40.055Z,4.96
2017-11-17T04:15:40.650Z,5.01
2017-11-17T04:15:41.257Z,5.02
2017-11-17T04:16:35.751Z,4.98
2017-11-17T04:16:36.333Z,4.99
2017-11-17T04:16:36.923Z,4.98
2017-11-17T04:16:37.534Z,4.94
2017-11-17T04:16:38.124Z,4.99
2017-11-17T04:16:38.724Z,4.98
2017-11-17T04:16:39.325Z,4.96
2017-11-17T04:16:39.923Z,5.01
2017-11-17T04:17:33.915Z,4.98
2017-11-17T04:17:34.491Z,4.96
2017-11-17T04:17:35.087Z,4.99
2017-11-17T04:17:35.688Z,5.04
2017-11-17T04:17:36.286Z,4.95
2017-11-17T04:17:36.885Z,5.04
2017-11-17T04:17:37.493Z,4.99
2017-11-17T04:18:31.977Z,5.04
2017-11-17T04:18:32.550Z,5.01
2017-11-17T04:18:33.150Z,5.02
2017-11-17T04:18:33.749Z,5.10
2017-11-17T04:18:34.349Z,5.02
2017-11-17T04:18:34.948Z,4.99
2017-11-17T04:18:35.549Z,5.07
2017-11-17T04:18:36.148Z,5.04
2017-11-17T04:19:31.168Z,4.96
2017-11-17T04:19:31.737Z,4.96
2017-11-17T04:19:32.336Z,5.04
2017-11-17T04:19:32.937Z,4.98
2017-11-17T04:19:33.539Z,4.99
2017-11-17T04:19:34.136Z,5.12
2017-11-17T04:20:29.125Z,5.13
2017-11-17T04:20:29.698Z,5.13
2017-11-17T04:20:30.296Z,5.17
2017-11-17T04:20:30.895Z,5.14
2017-11-17T04:20:31.494Z,5.12
2017-11-17T04:20:32.128Z,5.16
2017-11-17T04:20:32.695Z,5.13
2017-11-17T04:20:33.294Z,5.07
2017-11-17T04:21:27.287Z,5.05
2017-11-17T04:21:27.859Z,5.17
2017-11-17T04:21:28.461Z,5.04
2017-11-17T04:21:29.058Z,5.10
2017-11-17T04:21:29.659Z,5.10
2017-11-17T04:21:30.258Z,5.05
2017-11-17T04:21:30.859Z,5.04
2017-11-17T04:22:24.428Z,4.99
2017-11-17T04:22:25.000Z,5.05
2017-11-17T04:22:25.600Z,5.04
2017-11-17T04:22:26.201Z,5.13
2017-11-17T04:22:26.803Z,5.09
2017-11-17T04:22:27.400Z,5.14
2017-11-17T04:22:28.001Z,5.09
2017-11-17T04:22:28.600Z,5.20
2017-11-17T04:23:22.598Z,5.10
2017-11-17T04:23:23.165Z,5.14
2017-11-17T04:23:23.765Z,5.16
2017-11-17T04:23:24.362Z,5.10
2017-11-17T04:23:24.962Z,5.16
2017-11-17T04:23:25.562Z,5.13
2017-11-17T04:23:26.163Z,5.19
2017-11-17T04:24:19.732Z,5.20
2017-11-17T04:24:20.305Z,5.16
2017-11-17T04:24:20.905Z,5.22
2017-11-17T04:24:21.503Z,5.27
2017-11-17T04:24:22.104Z,5.19
2017-11-17T04:24:22.703Z,5.22
2017-11-17T04:24:23.303Z,5.27
2017-11-17T04:24:23.910Z,5.16
2017-11-17T04:25:18.916Z,5.20
2017-11-17T04:25:19.490Z,5.23
2017-11-17T04:25:20.090Z,5.19
2017-11-17T04:25:20.691Z,5.22
2017-11-17T04:25:21.291Z,5.16
2017-11-17T04:25:21.889Z,5.23
2017-11-17T04:26:16.875Z,5.19
2017-11-17T04:26:17.448Z,5.23
2017-11-17T04:26:18.049Z,5.28
2017-11-17T04:26:18.648Z,5.17
2017-11-17T04:26:19.250Z,5.23
2017-11-17T04:26:19.853Z,5.23
2017-11-17T04:26:20.448Z,5.19
2017-11-17T04:26:21.048Z,5.22
2017-11-17T04:27:14.527Z,5.16
2017-11-17T04:27:15.101Z,5.23
2017-11-17T04:27:15.702Z,5.22
2017-11-17T04:27:16.301Z,5.20
2017-11-17T04:27:16.900Z,5.25
2017-11-17T04:27:17.501Z,5.22
2017-11-17T04:27:18.099Z,5.17
2017-11-17T04:27:18.704Z,5.31
2017-11-17T04:28:13.203Z,5.27
2017-11-17T04:28:13.776Z,5.27
2017-11-17T04:28:14.377Z,5.31
2017-11-17T04:28:14.977Z,5.28
2017-11-17T04:28:15.576Z,5.27
2017-11-17T04:28:16.184Z,5.28
2017-11-17T04:28:16.776Z,5.30
2017-11-17T04:28:17.375Z,5.31
2017-11-17T04:29:52.959Z,5.27
2017-11-17T04:29:53.530Z,5.31
2017-11-17T04:29:54.130Z,5.34
2017-11-17T04:29:54.732Z,5.31
2017-11-17T04:29:55.331Z,5.30
2017-11-17T04:30:50.905Z,5.27
2017-11-17T04:30:51.475Z,5.30
2017-11-17T04:30:52.092Z,5.32
2017-11-17T04:30:52.674Z,5.30
2017-11-17T04:30:53.274Z,5.31
2017-11-17T04:30:53.874Z,5.34
2017-11-17T04:33:46.719Z,5.35
2017-11-17T04:33:47.283Z,5.28
2017-11-17T04:33:47.885Z,5.30
2017-11-17T04:33:48.483Z,5.30
2017-11-17T04:33:49.082Z,5.31
2017-11-17T04:33:49.681Z,5.40
2017-11-17T04:33:50.282Z,5.31
2017-11-17T04:33:50.881Z,5.30
2017-11-17T04:33:51.481Z,5.30
2017-11-17T04:33:52.080Z,5.35
2017-11-17T04:33:52.682Z,5.35
2017-11-17T04:33:53.281Z,5.37
2017-11-17T04:34:47.351Z,5.34
2017-11-17T04:34:47.923Z,5.32
2017-11-17T04:34:48.518Z,5.30
2017-11-17T04:34:49.119Z,5.31
2017-11-17T04:34:49.719Z,5.35
2017-11-17T04:34:50.318Z,5.35
2017-11-17T04:34:50.918Z,5.30
2017-11-17T04:34:51.519Z,5.28
2017-11-17T04:35:45.508Z,5.30
2017-11-17T04:35:46.087Z,5.31
2017-11-17T04:35:46.682Z,5.31
2017-11-17T04:35:47.282Z,5.32
2017-11-17T04:35:47.880Z,5.31
2017-11-17T04:35:48.486Z,5.35
2017-11-17T04:35:49.082Z,5.38
2017-11-17T04:36:42.649Z,5.32
2017-11-17T04:36:43.223Z,5.32
2017-11-17T04:36:43.822Z,5.35
2017-11-17T04:36:44.423Z,5.32
2017-11-17T04:36:45.024Z,5.30
2017-11-17T04:36:45.622Z,5.37
2017-11-17T04:36:46.221Z,5.28
2017-11-17T04:36:46.821Z,5.32
2017-11-17T04:37:40.300Z,5.30
2017-11-17T04:37:40.875Z,5.38
2017-11-17T04:37:41.477Z,5.28
2017-11-17T04:37:42.074Z,5.32
2017-11-17T04:37:42.674Z,5.41
2017-11-17T04:37:43.273Z,5.31
2017-11-17T04:37:43.874Z,5.32
2017-11-17T04:37:44.474Z,5.38
2017-11-17T04:38:37.952Z,5.45
2017-11-17T04:38:38.526Z,5.40
2017-11-17T04:38:39.127Z,5.35
2017-11-17T04:38:39.730Z,5.35
2017-11-17T04:38:40.324Z,5.35
2017-11-17T04:38:40.925Z,5.32
2017-11-17T04:38:41.525Z,5.40
2017-11-17T04:38:42.125Z,5.43
2017-11-17T04:39:36.628Z,5.38
2017-11-17T04:39:37.200Z,5.37
2017-11-17T04:39:37.799Z,5.34
2017-11-17T04:39:38.399Z,5.34
2017-11-17T04:39:38.999Z,5.35
2017-11-17T04:39:39.599Z,5.38
2017-11-17T04:39:40.200Z,5.35
2017-11-17T04:39:40.798Z,5.30
2017-11-17T04:40:34.279Z,5.38
2017-11-17T04:40:34.853Z,5.30
2017-11-17T04:40:35.453Z,5.34
2017-11-17T04:40:36.052Z,5.40
2017-11-17T04:40:36.652Z,5.34
2017-11-17T04:40:37.253Z,5.40
2017-11-17T04:40:37.852Z,5.38
2017-11-17T04:40:38.454Z,5.38
2017-11-17T04:41:32.960Z,5.28
2017-11-17T04:41:33.528Z,5.35
2017-11-17T04:41:34.137Z,5.38
2017-11-17T04:41:34.741Z,5.30
2017-11-17T04:41:35.328Z,5.28
2017-11-17T04:41:35.926Z,5.35
2017-11-17T04:41:36.526Z,5.35
2017-11-17T04:41:37.132Z,5.34
2017-11-17T04:42:31.117Z,5.32
2017-11-17T04:42:31.697Z,5.27
2017-11-17T04:42:32.291Z,5.28
2017-11-17T04:42:32.890Z,5.25
2017-11-17T04:42:33.490Z,5.22
2017-11-17T04:42:34.091Z,5.34
2017-11-17T04:42:34.689Z,5.27
2017-11-17T04:43:28.259Z,5.28
2017-11-17T04:43:28.831Z,5.32
2017-11-17T04:43:29.431Z,5.27
2017-11-17T04:43:30.031Z,5.37
2017-11-17T04:43:30.629Z,5.38
2017-11-17T04:43:31.230Z,5.31
2017-11-17T04:43:31.833Z,5.37
2017-11-17T04:43:32.432Z,5.28
2017-11-17T04:44:26.933Z,5.28
2017-11-17T04:44:27.506Z,5.28
2017-11-17T04:44:28.107Z,5.31
2017-11-17T04:44:28.709Z,5.30
2017-11-17T04:44:29.306Z,5.35
2017-11-17T04:44:29.906Z,5.38
2017-11-17T04:44:30.525Z,5.28
2017-11-17T04:44:31.108Z,5.34
2017-11-17T04:45:26.119Z,5.30
2017-11-17T04:45:26.695Z,5.31
2017-11-17T04:45:27.296Z,5.32
2017-11-17T04:45:27.894Z,5.35
2017-11-17T04:45:28.497Z,5.37
2017-11-17T04:45:29.100Z,5.40
2017-11-17T04:45:29.693Z,5.32
2017-11-17T05:05:50.632Z,5.20
2017-11-17T05:05:51.203Z,5.20
2017-11-17T05:05:51.801Z,5.17
2017-11-17T05:05:52.401Z,5.16
2017-11-17T05:05:52.998Z,5.23
2017-11-17T05:05:53.598Z,5.19
2017-11-17T05:05:54.201Z,5.22
2017-11-17T05:05:54.809Z,5.14
2017-11-17T05:06:49.298Z,5.20
2017-11-17T05:06:49.874Z,5.17
2017-11-17T05:06:50.473Z,5.27
2017-11-17T05:06:51.078Z,5.17
2017-11-17T05:06:51.673Z,5.22
2017-11-17T05:06:52.273Z,5.25
2017-11-17T05:06:52.873Z,5.25
2017-11-17T05:06:53.472Z,5.17
2017-11-17T05:07:48.491Z,5.13
2017-11-17T05:07:49.064Z,5.17
2017-11-17T05:07:49.663Z,5.17
2017-11-17T05:07:50.264Z,5.17
2017-11-17T05:07:50.872Z,5.19
2017-11-17T05:07:51.463Z,5.14
2017-11-17T05:08:45.939Z,5.20
2017-11-17T05:08:46.510Z,5.14
2017-11-17T05:08:47.110Z,5.14
2017-11-17T05:08:47.711Z,5.10
2017-11-17T05:08:48.309Z,5.13
2017-11-17T05:08:48.908Z,5.13
2017-11-17T05:08:49.509Z,5.13
2017-11-17T05:09:44.511Z,5.16
2017-11-17T05:09:45.085Z,5.16
2017-11-17T05:09:45.686Z,5.07
2017-11-17T05:09:46.283Z,5.20
2017-11-17T05:09:46.884Z,5.17
2017-11-17T05:09:47.488Z,5.14
2017-11-17T05:09:48.083Z,5.12
2017-11-17T05:10:41.659Z,5.13
2017-11-17T05:10:42.226Z,5.10
2017-11-17T05:10:42.823Z,5.13
2017-11-17T05:10:43.425Z,5.17
2017-11-17T05:10:44.025Z,5.16
2017-11-17T05:10:44.623Z,5.12
2017-11-17T05:10:45.229Z,5.20
2017-11-17T05:10:45.823Z,5.17
2017-11-17T05:11:40.326Z,5.04
2017-11-17T05:11:40.900Z,5.13
2017-11-17T05:11:41.498Z,5.13
2017-11-17T05:11:42.100Z,5.09
2017-11-17T05:11:42.698Z,5.10
2017-11-17T05:11:43.299Z,5.09
2017-11-17T05:11:43.898Z,5.13
2017-11-17T05:11:44.496Z,5.10
2017-11-17T05:12:37.978Z,5.02
2017-11-17T05:12:38.553Z,5.10
2017-11-17T05:12:39.159Z,5.10
2017-11-17T05:12:39.751Z,5.12
2017-11-17T05:12:40.352Z,5.05
2017-11-17T05:12:40.952Z,5.12
2017-11-17T05:12:41.550Z,5.07
2017-11-17T05:12:42.150Z,5.05
2017-11-17T05:13:35.633Z,5.12
2017-11-17T05:13:36.204Z,5.14
2017-11-17T05:13:36.802Z,5.20
2017-11-17T05:13:37.404Z,5.05
2017-11-17T05:13:38.003Z,5.19
2017-11-17T05:13:38.603Z,5.04
2017-11-17T05:13:39.202Z,5.07
2017-11-17T05:13:39.801Z,5.05
2017-11-17T05:14:33.282Z,5.01
2017-11-17T05:14:33.858Z,5.13
2017-11-17T05:14:34.454Z,5.13
2017-11-17T05:14:35.061Z,5.07
2017-11-17T05:14:35.655Z,5.19
2017-11-17T05:14:36.259Z,5.17
2017-11-17T05:14:36.879Z,5.04
2017-11-17T05:14:37.455Z,5.04
2017-11-17T05:15:31.979Z,5.13
2017-11-17T05:15:32.529Z,5.14
2017-11-17T05:15:33.128Z,5.10
2017-11-17T05:15:33.728Z,5.13
2017-11-17T05:15:34.328Z,5.12
2017-11-17T05:15:34.927Z,5.20
2017-11-17T05:15:35.527Z,5.14
2017-11-17T05:15:36.127Z,5.12
2017-11-17T05:16:29.609Z,5.13
2017-11-17T05:16:30.186Z,5.13
2017-11-17T05:16:30.787Z,5.13
2017-11-17T05:16:31.382Z,5.13
2017-11-17T05:16:31.983Z,5.16
2017-11-17T05:16:32.582Z,5.16
2017-11-17T05:16:33.183Z,5.13
2017-11-17T05:16:33.784Z,5.17
2017-11-17T05:17:27.261Z,5.10
2017-11-17T05:17:27.837Z,5.14
2017-11-17T05:17:28.435Z,5.12
2017-11-17T05:17:29.035Z,5.14
2017-11-17T05:17:29.635Z,5.14
2017-11-17T05:17:30.234Z,5.13
2017-11-17T05:17:30.833Z,5.13
2017-11-17T05:17:31.433Z,5.10
2017-11-17T05:18:27.473Z,5.17
2017-11-17T05:18:28.047Z,5.17
2017-11-17T05:18:28.645Z,5.17
2017-11-17T05:18:29.244Z,5.12
2017-11-17T05:18:29.845Z,5.14
2017-11-17T05:18:30.446Z,5.16
2017-11-17T05:19:25.942Z,5.10
2017-11-17T05:19:26.521Z,5.14
2017-11-17T05:19:27.116Z,5.10
2017-11-17T05:19:27.716Z,5.13
2017-11-17T05:19:28.316Z,5.05
2017-11-17T05:19:28.915Z,5.05
2017-11-17T05:19:29.517Z,5.14
2017-11-17T05:20:23.084Z,5.17
2017-11-17T05:20:23.659Z,5.12
2017-11-17T05:20:24.258Z,5.14
2017-11-17T05:20:24.856Z,5.04